createdAt,value
2024-03-05T00:00:37.259Z,7.89
2024-03-05T00:03:30.939Z,7.90
2024-03-05T00:06:05.025Z,7.91
2024-03-05T00:08:38.885Z,7.91
2024-03-05T00:11:12.812Z,7.91
2024-03-05T00:13:47.020Z,7.92
2024-03-05T00:16:20.963Z,7.93
2024-03-05T00:18:55.593Z,7.93
2024-03-05T00:21:29.953Z,7.92
2024-03-05T00:24:03.817Z,7.92
2024-03-05T00:26:38.313Z,7.91
2024-03-05T00:29:11.795Z,7.90
2024-03-05T00:31:45.548Z,7.90
2024-03-05T00:34:19.183Z,7.88
2024-03-05T00:36:53.378Z,7.87
2024-03-05T00:39:27.636Z,7.85
2024-03-05T00:42:01.440Z,7.84
2024-03-05T00:44:35.293Z,7.84
2024-03-05T00:47:09.851Z,7.82
2024-03-05T00:49:44.333Z,7.79
2024-03-05T00:52:20.377Z,7.79
2024-03-05T00:55:06.001Z,7.75
2024-03-05T00:57:40.316Z,7.71
2024-03-05T01:00:22.588Z,7.68
2024-03-05T01:03:00.878Z,7.69
2024-03-05T01:05:35.072Z,7.69
2024-03-05T01:08:16.024Z,7.70
2024-03-05T01:10:50.289Z,7.71
2024-03-05T01:13:26.944Z,7.71
2024-03-05T01:16:00.984Z,7.71
2024-03-05T01:18:35.716Z,7.72
2024-03-05T01:21:10.996Z,7.73
2024-03-05T01:23:48.001Z,7.73
2024-03-05T01:26:26.384Z,7.72
2024-03-05T01:29:19.326Z,7.70
2024-03-05T01:31:58.271Z,7.66
2024-03-05T01:34:32.700Z,7.64
2024-03-05T01:37:06.612Z,7.61
2024-03-05T01:39:40.818Z,7.59
2024-03-05T01:42:15.380Z,7.56
2024-03-05T01:44:49.189Z,7.53
2024-03-05T01:47:23.564Z,7.46
2024-03-05T01:49:58.267Z,7.39
2024-03-05T01:52:32.616Z,7.33
2024-03-05T01:55:10.098Z,7.27
2024-03-05T01:57:43.829Z,7.21
2024-03-05T02:00:22.499Z,7.15
2024-03-05T02:02:57.119Z,7.07
2024-03-05T02:05:31.051Z,7.00
2024-03-05T02:08:05.766Z,6.96
2024-03-05T02:10:39.635Z,6.95
2024-03-05T02:13:15.480Z,6.93
2024-03-05T02:15:50.656Z,6.90
2024-03-05T02:18:24.233Z,6.87
2024-03-05T02:21:03.333Z,6.83
2024-03-05T02:23:36.901Z,6.79
2024-03-05T02:26:11.183Z,6.73
2024-03-05T02:28:45.324Z,6.69
2024-03-05T02:31:19.646Z,6.65
2024-03-05T02:33:55.060Z,6.63
2024-03-05T02:36:28.878Z,6.62
2024-03-05T02:39:02.556Z,6.61
2024-03-05T02:41:36.917Z,6.59
2024-03-05T02:44:10.620Z,6.55
2024-03-05T02:46:44.358Z,6.52
2024-03-05T02:49:18.383Z,6.49
2024-03-05T02:51:52.786Z,6.48
2024-03-05T02:54:27.047Z,6.47
2024-03-05T02:57:01.267Z,6.45
2024-03-05T02:59:34.816Z,6.42
2024-03-05T03:02:09.102Z,6.40
2024-03-05T03:04:43.491Z,6.38
2024-03-05T03:07:18.728Z,6.37
2024-03-05T03:09:52.669Z,6.35
2024-03-05T03:12:27.504Z,6.31
2024-03-05T03:15:01.031Z,6.28
2024-03-05T03:17:34.758Z,6.26
2024-03-05T03:20:11.398Z,6.23
2024-03-05T03:22:45.667Z,6.22
2024-03-05T03:25:20.015Z,6.20
2024-03-05T03:27:53.826Z,6.19
2024-03-05T03:30:28.569Z,6.18
2024-03-05T03:33:02.306Z,6.18
2024-03-05T03:35:36.530Z,6.18
2024-03-05T03:38:10.616Z,6.17
2024-03-05T03:40:45.874Z,6.17
2024-03-05T03:43:19.672Z,6.17
2024-03-05T03:45:53.821Z,6.16
2024-03-05T03:48:27.833Z,6.16
2024-03-05T03:51:01.801Z,6.20
2024-03-05T03:53:35.492Z,6.25
2024-03-05T03:56:10.859Z,6.32
2024-03-05T03:58:45.668Z,6.40
2024-03-05T04:01:20.777Z,6.46
2024-03-05T04:03:54.408Z,6.57
2024-03-05T04:06:30.212Z,6.67
2024-03-05T04:09:04.718Z,6.75
2024-03-05T04:11:39.062Z,6.82
2024-03-05T04:14:12.791Z,6.92
2024-03-05T04:16:46.766Z,7.02
2024-03-05T04:19:20.888Z,7.11
2024-03-05T04:21:59.619Z,7.23
2024-03-05T04:24:37.703Z,7.38
2024-03-05T04:27:13.670Z,7.55
2024-03-05T04:29:48.870Z,7.71
2024-03-05T04:32:22.521Z,7.87
2024-03-05T04:35:02.984Z,8.04
2024-03-05T04:37:37.270Z,8.21
2024-03-05T04:40:12.982Z,8.37
2024-03-05T04:42:46.732Z,8.53
2024-03-05T04:45:20.902Z,8.67
2024-03-05T04:47:54.913Z,8.83
2024-03-05T04:50:28.780Z,9.01
2024-03-05T04:53:02.472Z,9.17
2024-03-05T04:55:37.649Z,9.34
2024-03-05T04:58:11.726Z,9.50
2024-03-05T05:00:46.239Z,9.65
2024-03-05T05:03:19.950Z,9.77
2024-03-05T05:05:56.564Z,9.87
2024-03-05T05:08:31.758Z,10.05
2024-03-05T05:11:06.177Z,10.24
2024-03-05T05:13:40.350Z,10.46
2024-03-05T05:16:14.759Z,10.67
2024-03-05T05:18:48.332Z,10.87
2024-03-05T05:21:21.754Z,11.04
2024-03-05T05:23:55.508Z,11.21
2024-03-05T05:26:29.454Z,11.38
2024-03-05T05:29:03.387Z,11.50
2024-03-05T05:31:38.432Z,11.71
2024-03-05T05:34:14.908Z,11.99
2024-03-05T05:36:48.318Z,12.26
2024-03-05T05:39:26.092Z,12.49
2024-03-05T05:41:59.931Z,12.71
2024-03-05T05:44:34.148Z,12.97
2024-03-05T05:47:12.337Z,13.38
2024-03-05T05:49:46.360Z,14.24
2024-03-05T05:52:23.600Z,15.69
2024-03-05T05:54:58.375Z,17.42
2024-03-05T05:57:32.309Z,19.06
2024-03-05T06:00:10.184Z,20.66
2024-03-05T06:02:47.630Z,22.19
2024-03-05T06:05:21.864Z,23.66
2024-03-05T06:07:55.593Z,25.04
2024-03-05T06:10:31.140Z,26.30
2024-03-05T06:13:05.097Z,27.47
2024-03-05T06:15:40.430Z,28.60
2024-03-05T06:18:15.365Z,29.68
2024-03-05T06:20:49.919Z,30.63
2024-03-05T06:23:24.861Z,31.51
2024-03-05T06:25:58.682Z,32.13
2024-03-05T06:28:32.939Z,32.75
2024-03-05T06:31:07.773Z,33.38
2024-03-05T06:33:42.867Z,33.82
2024-03-05T06:36:17.304Z,34.11
2024-03-05T06:38:51.416Z,34.28
2024-03-05T06:41:26.804Z,34.24
2024-03-05T06:44:11.813Z,34.28
2024-03-05T06:46:45.674Z,34.38
2024-03-05T06:49:28.920Z,34.62
2024-03-05T06:52:17.108Z,34.80
2024-03-05T06:55:08.830Z,34.74
2024-03-05T06:57:44.149Z,34.86
2024-03-05T07:00:19.827Z,35.04
2024-03-05T07:02:54.473Z,35.45
2024-03-05T07:05:29.177Z,35.87
2024-03-05T07:08:03.924Z,36.11
2024-03-05T07:10:38.925Z,36.21
2024-03-05T07:13:13.481Z,36.05
2024-03-05T07:15:45.193Z,36.28
2024-03-05T07:18:19.025Z,36.45
2024-03-05T07:20:54.370Z,36.57
2024-03-05T07:23:30.577Z,36.55
2024-03-05T07:26:07.626Z,36.48
2024-03-05T07:28:43.087Z,36.47
2024-03-05T07:31:19.395Z,36.62
2024-03-05T07:33:54.219Z,36.82
2024-03-05T07:36:28.140Z,36.96
2024-03-05T07:39:08.289Z,36.82
2024-03-05T07:41:45.776Z,36.56
2024-03-05T07:44:19.799Z,36.47
2024-03-05T07:46:53.883Z,36.39
2024-03-05T07:49:28.551Z,36.15
2024-03-05T07:52:02.474Z,36.03
2024-03-05T07:54:36.461Z,36.05
2024-03-05T07:57:11.761Z,36.08
2024-03-05T07:59:45.703Z,35.86
2024-03-05T08:02:19.375Z,35.84
2024-03-05T08:04:53.173Z,35.66
2024-03-05T08:07:27.126Z,35.45
2024-03-05T08:10:01.374Z,34.87
2024-03-05T08:12:35.087Z,33.29
2024-03-05T08:15:13.904Z,31.72
2024-03-05T08:17:48.540Z,30.21
2024-03-05T08:20:25.947Z,28.86
2024-03-05T08:22:59.920Z,27.68
2024-03-05T08:25:33.930Z,26.65
2024-03-05T08:28:08.594Z,25.81
2024-03-05T08:30:44.141Z,25.01
2024-03-05T08:33:22.256Z,24.22
2024-03-05T08:35:56.032Z,23.37
2024-03-05T08:38:31.215Z,22.63
2024-03-05T08:41:05.268Z,22.10
2024-03-05T08:43:39.933Z,21.66
2024-03-05T08:46:14.044Z,21.30
2024-03-05T08:48:47.802Z,20.94
2024-03-05T08:51:21.639Z,20.59
2024-03-05T08:53:57.080Z,20.34
2024-03-05T08:56:31.394Z,20.16
2024-03-05T08:59:07.950Z,19.95
2024-03-05T09:01:41.860Z,19.79
2024-03-05T09:04:15.601Z,19.65
2024-03-05T09:06:48.964Z,19.48
2024-03-05T09:09:22.782Z,19.29
2024-03-05T09:11:57.178Z,19.13
2024-03-05T09:14:31.747Z,19.04
2024-03-05T09:17:06.607Z,18.96
2024-03-05T09:19:40.898Z,18.86
2024-03-05T09:22:16.947Z,18.78
2024-03-05T09:24:51.985Z,18.64
2024-03-05T09:27:26.673Z,18.33
2024-03-05T09:30:00.432Z,18.13
2024-03-05T09:32:35.307Z,18.06
2024-03-05T09:35:11.428Z,18.01
2024-03-05T09:37:47.282Z,17.98
2024-03-05T09:40:22.374Z,17.91
2024-03-05T09:42:56.535Z,17.85
2024-03-05T09:45:32.508Z,17.61
2024-03-05T09:48:07.561Z,17.33
2024-03-05T09:50:41.544Z,17.19
2024-03-05T09:53:15.492Z,17.21
2024-03-05T09:55:53.131Z,17.19
2024-03-05T09:58:37.854Z,17.20
2024-03-05T10:01:12.481Z,17.17
2024-03-05T10:03:47.251Z,17.16
2024-03-05T10:06:20.798Z,17.20
2024-03-05T10:08:55.653Z,17.11
2024-03-05T10:11:29.698Z,17.08
2024-03-05T10:14:09.555Z,17.08
2024-03-05T10:16:45.497Z,17.08
2024-03-05T10:19:21.768Z,17.13
2024-03-05T10:21:55.942Z,17.20
2024-03-05T10:24:36.408Z,17.27
2024-03-05T10:27:10.462Z,17.28
2024-03-05T10:29:44.189Z,17.26
2024-03-05T10:32:22.226Z,17.19
2024-03-05T10:34:55.941Z,17.06
2024-03-05T10:37:30.225Z,16.96
2024-03-05T10:40:10.301Z,16.97
2024-03-05T10:42:44.592Z,16.99
2024-03-05T10:45:18.598Z,17.00
2024-03-05T10:47:52.628Z,17.05
2024-03-05T10:50:27.103Z,17.04
2024-03-05T10:53:03.013Z,17.05
2024-03-05T10:55:39.800Z,17.08
2024-03-05T10:58:38.786Z,17.13
2024-03-05T11:01:14.889Z,17.13
2024-03-05T11:03:50.413Z,17.12
2024-03-05T11:06:25.940Z,17.14
2024-03-05T11:09:02.237Z,17.19
2024-03-05T11:11:36.118Z,17.25
2024-03-05T11:14:11.919Z,17.27
2024-03-05T11:16:47.676Z,17.26
2024-03-05T11:19:21.335Z,17.25
2024-03-05T11:21:55.983Z,17.18
2024-03-05T11:24:30.276Z,17.17
2024-03-05T11:27:13.712Z,17.16
2024-03-05T11:29:47.921Z,17.10
2024-03-05T11:32:30.088Z,17.10
2024-03-05T11:35:05.656Z,17.15
2024-03-05T11:37:52.136Z,17.19
2024-03-05T11:40:34.528Z,17.24
2024-03-05T11:43:08.903Z,17.29
2024-03-05T11:45:50.727Z,17.35
2024-03-05T11:48:25.705Z,17.43
2024-03-05T11:51:00.660Z,17.47
2024-03-05T11:53:35.002Z,17.48
2024-03-05T11:56:13.146Z,17.46
2024-03-05T11:58:47.490Z,17.44
2024-03-05T12:01:21.408Z,17.45
2024-03-05T12:04:05.299Z,17.47
2024-03-05T12:06:40.670Z,17.49
2024-03-05T12:09:20.299Z,17.53
2024-03-05T12:12:06.831Z,17.54
2024-03-05T12:14:41.641Z,17.58
2024-03-05T12:17:15.631Z,17.62
2024-03-05T12:19:51.008Z,17.63
2024-03-05T12:22:25.825Z,17.62
2024-03-05T12:24:59.805Z,17.62
2024-03-05T12:27:35.789Z,17.63
2024-03-05T12:30:12.323Z,17.64
2024-03-05T12:32:47.853Z,17.65
2024-03-05T12:35:23.744Z,17.55
2024-03-05T12:37:57.788Z,17.37
2024-03-05T12:40:33.633Z,17.25
2024-03-05T12:43:16.303Z,17.18
2024-03-05T12:45:51.027Z,17.15
2024-03-05T12:48:33.391Z,17.16
2024-03-05T12:51:08.248Z,17.18
2024-03-05T12:53:43.369Z,17.18
2024-03-05T12:56:17.859Z,17.19
2024-03-05T12:58:52.359Z,17.20
2024-03-05T13:01:26.781Z,17.17
2024-03-05T13:04:00.298Z,17.14
2024-03-05T13:06:34.304Z,17.11
2024-03-05T13:09:10.163Z,17.08
2024-03-05T13:11:43.892Z,17.09
2024-03-05T13:14:21.555Z,17.08
2024-03-05T13:16:56.959Z,17.07
2024-03-05T13:19:30.637Z,17.04
2024-03-05T13:22:04.157Z,17.00
2024-03-05T13:24:39.655Z,16.93
2024-03-05T13:27:13.996Z,16.86
2024-03-05T13:29:48.611Z,16.79
2024-03-05T13:32:23.483Z,16.76
2024-03-05T13:34:56.928Z,16.74
2024-03-05T13:37:30.573Z,16.71
2024-03-05T13:40:04.265Z,16.66
2024-03-05T13:42:38.383Z,16.61
2024-03-05T13:45:13.996Z,16.57
2024-03-05T13:47:48.180Z,16.54
2024-03-05T13:50:22.327Z,16.50
2024-03-05T13:52:57.229Z,16.46
2024-03-05T13:55:34.238Z,16.41
2024-03-05T13:58:08.513Z,16.37
2024-03-05T14:00:42.247Z,16.32
2024-03-05T14:03:17.509Z,16.25
2024-03-05T14:05:51.792Z,16.17
2024-03-05T14:08:25.502Z,16.08
2024-03-05T14:10:59.585Z,16.02
2024-03-05T14:13:35.340Z,15.95
2024-03-05T14:16:14.751Z,15.89
2024-03-05T14:18:50.189Z,15.83
2024-03-05T14:21:23.924Z,15.77
2024-03-05T14:23:58.204Z,15.70
2024-03-05T14:26:32.074Z,15.60
2024-03-05T14:29:06.344Z,15.51
2024-03-05T14:31:40.174Z,15.40
2024-03-05T14:34:14.915Z,15.29
2024-03-05T14:36:49.380Z,15.17
2024-03-05T14:39:23.861Z,15.06
2024-03-05T14:41:57.627Z,14.94
2024-03-05T14:44:31.200Z,14.85
2024-03-05T14:47:05.307Z,14.76
2024-03-05T14:49:39.352Z,14.68
2024-03-05T14:52:13.011Z,14.60
2024-03-05T14:54:46.609Z,14.52
2024-03-05T14:57:20.388Z,14.43
2024-03-05T14:59:54.212Z,14.35
2024-03-05T15:02:28.037Z,14.25
2024-03-05T15:05:01.486Z,14.17
2024-03-05T15:07:35.569Z,14.09
2024-03-05T15:10:13.936Z,13.99
2024-03-05T15:12:49.057Z,13.91
2024-03-05T15:15:25.416Z,13.83
2024-03-05T15:18:02.331Z,13.75
2024-03-05T15:20:37.057Z,13.69
2024-03-05T15:23:12.024Z,13.64
2024-03-05T15:25:47.106Z,13.55
2024-03-05T15:28:21.217Z,13.46
2024-03-05T15:30:55.254Z,13.40
2024-03-05T15:33:29.233Z,13.35
2024-03-05T15:36:03.295Z,13.30
2024-03-05T15:38:37.116Z,13.25
2024-03-05T15:41:11.568Z,13.21
2024-03-05T15:43:45.943Z,13.16
2024-03-05T15:46:19.816Z,13.09
2024-03-05T15:48:53.702Z,13.04
2024-03-05T15:51:28.121Z,12.98
2024-03-05T15:54:02.002Z,12.92
2024-03-05T15:56:47.018Z,12.87
2024-03-05T15:59:38.539Z,12.82
2024-03-05T16:02:12.687Z,12.77
2024-03-05T16:05:05.448Z,12.73
2024-03-05T16:07:40.751Z,12.70
2024-03-05T16:10:17.840Z,12.67
2024-03-05T16:12:51.588Z,12.64
2024-03-05T16:15:25.825Z,12.61
2024-03-05T16:18:01.165Z,12.56
2024-03-05T16:20:35.274Z,12.51
2024-03-05T16:23:09.422Z,12.48
2024-03-05T16:25:43.599Z,12.45
2024-03-05T16:28:18.957Z,12.42
2024-03-05T16:30:53.318Z,12.39
2024-03-05T16:33:27.978Z,12.35
2024-03-05T16:36:01.700Z,12.31
2024-03-05T16:38:37.537Z,12.28
2024-03-05T16:41:11.284Z,12.24
2024-03-05T16:43:45.010Z,12.20
2024-03-05T16:46:18.763Z,12.14
2024-03-05T16:48:52.887Z,12.08
2024-03-05T16:51:27.920Z,12.05
2024-03-05T16:54:01.563Z,12.01
2024-03-05T16:56:35.362Z,11.96
2024-03-05T16:59:09.297Z,11.94
2024-03-05T17:01:43.259Z,11.92
2024-03-05T17:04:22.444Z,11.87
2024-03-05T17:06:58.496Z,11.84
2024-03-05T17:09:32.032Z,11.81
2024-03-05T17:12:08.129Z,11.77
2024-03-05T17:14:45.622Z,11.74
2024-03-05T17:17:19.283Z,11.70
2024-03-05T17:19:57.162Z,11.66
2024-03-05T17:22:33.042Z,11.64
2024-03-05T17:25:10.106Z,11.61
2024-03-05T17:27:43.534Z,11.56
2024-03-05T17:30:20.077Z,11.52
2024-03-05T17:32:53.765Z,11.50
2024-03-05T17:35:28.626Z,11.46
2024-03-05T17:38:06.245Z,11.44
2024-03-05T17:40:40.152Z,11.42
2024-03-05T17:43:13.714Z,11.40
2024-03-05T17:45:47.646Z,11.38
2024-03-05T17:48:22.292Z,11.36
2024-03-05T17:50:55.963Z,11.33
2024-03-05T17:53:29.476Z,11.31
2024-03-05T17:56:05.782Z,11.27
2024-03-05T17:58:39.862Z,11.22
2024-03-05T18:01:15.890Z,11.20
2024-03-05T18:03:50.303Z,11.17
2024-03-05T18:06:24.657Z,11.15
2024-03-05T18:08:58.294Z,11.12
2024-03-05T18:11:33.139Z,11.10
2024-03-05T18:14:07.239Z,11.07
2024-03-05T18:16:41.661Z,11.03
2024-03-05T18:19:15.267Z,11.00
2024-03-05T18:21:49.614Z,10.95
2024-03-05T18:24:23.188Z,10.92
2024-03-05T18:26:56.642Z,10.89
2024-03-05T18:29:31.078Z,10.88
2024-03-05T18:32:05.941Z,10.85
2024-03-05T18:34:40.210Z,10.82
2024-03-05T18:37:13.649Z,10.80
2024-03-05T18:39:47.412Z,10.80
2024-03-05T18:42:22.417Z,10.79
2024-03-05T18:44:58.976Z,10.79
2024-03-05T18:47:33.380Z,10.79
2024-03-05T18:50:08.041Z,10.78
2024-03-05T18:52:42.419Z,10.77
2024-03-05T18:55:17.223Z,10.75
2024-03-05T18:57:51.147Z,10.73
2024-03-05T19:00:25.399Z,10.72
2024-03-05T19:02:59.076Z,10.71
2024-03-05T19:05:33.418Z,10.68
2024-03-05T19:08:07.927Z,10.65
2024-03-05T19:10:42.482Z,10.61
2024-03-05T19:13:17.398Z,10.54
2024-03-05T19:15:51.597Z,10.51
2024-03-05T19:18:25.606Z,10.48
2024-03-05T19:21:01.346Z,10.45
2024-03-05T19:23:34.870Z,10.43
2024-03-05T19:26:08.766Z,10.40
2024-03-05T19:28:42.674Z,10.38
2024-03-05T19:31:16.061Z,10.37
2024-03-05T19:33:49.472Z,10.34
2024-03-05T19:36:23.147Z,10.32
2024-03-05T19:38:58.935Z,10.29
2024-03-05T19:41:35.840Z,10.25
2024-03-05T19:44:10.384Z,10.21
2024-03-05T19:46:45.603Z,10.18
2024-03-05T19:49:19.058Z,10.16
2024-03-05T19:51:53.628Z,10.13
2024-03-05T19:54:29.562Z,10.11
2024-03-05T19:57:04.994Z,10.10
2024-03-05T19:59:39.422Z,10.08
2024-03-05T20:02:17.920Z,10.05
2024-03-05T20:04:52.243Z,10.03
2024-03-05T20:07:28.643Z,10.02
2024-03-05T20:10:08.477Z,10.00
2024-03-05T20:12:41.967Z,10.00
2024-03-05T20:15:16.280Z,9.97
2024-03-05T20:17:50.167Z,9.93
2024-03-05T20:20:31.411Z,9.93
2024-03-05T20:23:18.999Z,9.91
2024-03-05T20:25:57.735Z,9.90
2024-03-05T20:28:32.909Z,9.89
2024-03-05T20:31:09.484Z,9.90
2024-03-05T20:33:45.585Z,9.90
2024-03-05T20:36:25.541Z,9.87
2024-03-05T20:39:00.209Z,9.81
2024-03-05T20:41:35.404Z,9.79
2024-03-05T20:44:09.474Z,9.77
2024-03-05T20:46:43.117Z,9.76
2024-03-05T20:49:17.955Z,9.75
2024-03-05T20:51:52.145Z,9.70
2024-03-05T20:54:25.730Z,9.65
2024-03-05T20:57:01.303Z,9.63
2024-03-05T20:59:35.525Z,9.62
2024-03-05T21:02:11.724Z,9.58
2024-03-05T21:04:47.594Z,9.57
2024-03-05T21:07:22.672Z,9.57
2024-03-05T21:09:57.569Z,9.56
2024-03-05T21:12:32.430Z,9.56
2024-03-05T21:15:06.324Z,9.57
2024-03-05T21:17:40.469Z,9.58
2024-03-05T21:20:17.559Z,9.59
2024-03-05T21:22:52.111Z,9.61
2024-03-05T21:25:27.557Z,9.63
2024-03-05T21:28:01.132Z,9.62
2024-03-05T21:30:34.934Z,9.60
2024-03-05T21:33:08.943Z,9.61
2024-03-05T21:35:42.521Z,9.62
2024-03-05T21:38:16.419Z,9.64
2024-03-05T21:40:50.374Z,9.65
2024-03-05T21:43:24.375Z,9.65
2024-03-05T21:45:58.414Z,9.62
2024-03-05T21:48:32.262Z,9.56
2024-03-05T21:51:10.222Z,9.54
2024-03-05T21:53:49.477Z,9.54
2024-03-05T21:56:23.489Z,9.57
2024-03-05T21:58:57.851Z,9.57
2024-03-05T22:01:31.475Z,9.57
2024-03-05T22:04:05.524Z,9.55
2024-03-05T22:06:39.300Z,9.54
2024-03-05T22:09:13.263Z,9.54
2024-03-05T22:11:48.467Z,9.54
2024-03-05T22:14:22.379Z,9.55
2024-03-05T22:16:56.213Z,9.57
2024-03-05T22:19:30.027Z,9.58
2024-03-05T22:22:04.218Z,9.59
2024-03-05T22:24:37.606Z,9.61
2024-03-05T22:27:11.236Z,9.62
2024-03-05T22:29:55.128Z,9.59
2024-03-05T22:32:29.959Z,9.57
2024-03-05T22:35:05.176Z,9.57
2024-03-05T22:37:40.553Z,9.57
2024-03-05T22:40:15.529Z,9.59
2024-03-05T22:42:49.814Z,9.59
2024-03-05T22:45:23.949Z,9.59
2024-03-05T22:47:58.347Z,9.60
2024-03-05T22:50:32.482Z,9.62
2024-03-05T22:53:06.414Z,9.62
2024-03-05T22:55:41.023Z,9.62
2024-03-05T22:58:15.185Z,9.61
2024-03-05T23:00:52.006Z,9.60
2024-03-05T23:03:26.309Z,9.58
2024-03-05T23:06:04.944Z,9.57
2024-03-05T23:08:42.484Z,9.56
2024-03-05T23:11:16.494Z,9.54
2024-03-05T23:13:50.523Z,9.53
2024-03-05T23:16:24.285Z,9.51
2024-03-05T23:18:58.149Z,9.47
2024-03-05T23:21:32.733Z,9.44
2024-03-05T23:24:07.409Z,9.42
2024-03-05T23:26:41.241Z,9.39
2024-03-05T23:29:15.309Z,9.35
2024-03-05T23:31:49.338Z,9.31
2024-03-05T23:34:23.056Z,9.25
2024-03-05T23:36:57.218Z,9.21
2024-03-05T23:39:31.261Z,9.17
2024-03-05T23:42:06.170Z,9.13
2024-03-05T23:44:42.146Z,9.07
2024-03-05T23:47:16.072Z,9.04
2024-03-05T23:49:50.395Z,9.01
2024-03-05T23:52:24.872Z,8.98
2024-03-05T23:55:02.221Z,8.95
2024-03-05T23:57:36.823Z,8.93
